Lismore, Minnesota
Current Conditions -  °F | °C
As of 4:34 PM on Monday 22 Dec 2014 (Local Time) from KLYV Reporting Station
Moderate Rain Moderate Rain  
Wind Chill: 34°   Ceiling: 400
Heat Index: 39°   Visibility: 3mi
Dew Point: 37°   Wind: 8mph
Humidity: 93%   Direction: 130°SE
Pressure: 29.43"   Gusts: NA
Location:  43.75°N, 95.95°W
Report Text: KLYV 222234Z AUTO 13007KT 3SM RA OVC004 04/03 A2943 RMK AO2 P0002
Loading
Personal Weather Stations






























Interactive Weather Map New forecast layout! Learn more

10-Day Weather Forecast

Advertisements
Track Severe Weather on mobile